Northampton, New York
Current Conditions -  °F | °C
As of 6:53 PM on Thursday 27 Nov 2014 (Local Time) from KFOK Reporting Station
Overcast Overcast  
Wind Chill: 32°   Ceiling: 1800
Heat Index: 37°   Visibility: 10mi
Dew Point: 32°   Wind: 6mph
Humidity: 82%   Direction: 320°NW
Pressure: 30.02"   Gusts: NA
Location:  40.953°N, 72.642°W
Report Text: KFOK 272353Z AUTO 32005KT 10SM OVC018 03/00 A3002 RMK AO2 SLP166 T00280000 10039 20028 53011 TSNO
Loading
Personal Weather Stations






























Interactive Weather Map New forecast layout! Learn more

10-Day Weather Forecast

Advertisements
Track Severe Weather on mobile